Time;durP1;ratioP1;P1;durP2;ratioP2;P2;SDS_P1;SDS_P2;PMS_P1;PMS_P2;Temp;Humidity;BMP_temperature;BMP_pressure;BME280_temperature;BME280_humidity;BME280_pressure;Samples;Min_cycle;Max_cycle;Signal;HPM_P1;HPM_P2
2022/08/04 00:00:42;;;;;;;5.50;3.38;;;19.50;99.90;;;;;;5026365;28;20038;-83
2022/08/04 00:03:08;;;;;;;7.95;3.63;;;19.50;99.90;;;;;;5046982;28;20064;-83
2022/08/04 00:05:38;;;;;;;10.38;4.20;;;19.50;99.90;;;;;;5003918;28;20064;-83
2022/08/04 00:08:38;;;;;;;6.88;4.10;;;19.50;99.90;;;;;;5043418;28;20060;-83
2022/08/04 00:11:07;;;;;;;4.80;3.30;;;19.40;99.90;;;;;;5054610;28;20055;-83
2022/08/04 00:13:38;;;;;;;7.25;4.45;;;19.40;99.90;;;;;;5034854;28;20132;-83
2022/08/04 00:16:07;;;;;;;8.02;3.80;;;19.40;99.90;;;;;;5039041;28;20354;-83
2022/08/04 00:18:39;;;;;;;8.75;3.42;;;19.40;99.90;;;;;;5012830;28;20159;-83
2022/08/04 00:21:09;;;;;;;9.57;3.78;;;19.40;99.90;;;;;;5041603;28;20056;-82
2022/08/04 00:23:37;;;;;;;6.50;3.88;;;19.30;99.90;;;;;;5061521;28;20028;-83
2022/08/04 00:26:02;;;;;;;10.73;4.47;;;19.30;99.90;;;;;;5028571;28;20041;-83
2022/08/04 00:28:29;;;;;;;10.02;4.45;;;19.30;99.90;;;;;;5026869;28;20033;-82
2022/08/04 00:30:55;;;;;;;10.05;4.90;;;19.30;1.00;;;;;;5011741;28;20037;-83
2022/08/04 00:33:21;;;;;;;12.88;4.60;;;19.30;1.00;;;;;;5014741;28;20411;-83
2022/08/04 00:35:49;;;;;;;12.57;5.25;;;19.20;1.00;;;;;;5026532;28;20512;-83
2022/08/04 00:38:18;;;;;;;10.30;4.65;;;19.30;1.00;;;;;;5024087;28;20041;-83
2022/08/04 00:40:59;;;;;;;11.30;5.60;;;19.20;99.90;;;;;;5009019;28;20504;-82
2022/08/04 00:43:45;;;;;;;7.80;4.80;;;19.20;99.90;;;;;;5012873;28;20116;-82
2022/08/04 00:46:20;;;;;;;11.07;5.80;;;19.20;1.00;;;;;;5059459;28;20409;-82
2022/08/04 00:49:10;;;;;;;10.60;5.97;;;19.10;99.90;;;;;;5015791;28;20037;-83
2022/08/04 00:52:08;;;;;;;13.13;5.80;;;19.20;99.90;;;;;;5058851;28;20556;-82
2022/08/04 00:54:54;;;;;;;11.85;5.75;;;19.20;99.90;;;;;;5027135;28;20521;-83
2022/08/04 00:57:29;;;;;;;11.32;5.25;;;19.10;1.00;;;;;;5030941;28;20033;-83
2022/08/04 01:00:09;;;;;;;;;;;19.10;1.00;;;;;;5058709;28;20486;-82
2022/08/04 01:02:51;;;;;;;11.25;5.50;;;19.20;81.80;;;;;;5036141;28;19917;-82
2022/08/04 01:05:44;;;;;;;12.65;5.80;;;19.10;90.60;;;;;;5029263;28;20067;-83
2022/08/04 01:08:56;;;;;;;12.00;5.78;;;19.10;47.40;;;;;;5030943;28;20049;-82
2022/08/04 01:12:03;;;;;;;13.70;6.55;;;19.10;1.00;;;;;;5056718;28;20037;-82
2022/08/04 01:15:09;;;;;;;12.15;5.97;;;19.20;28.50;;;;;;5028526;28;20567;-83
2022/08/04 01:17:34;;;;;;;14.07;6.30;;;19.10;99.90;;;;;;5035004;28;20044;-82
2022/08/04 01:20:06;;;;;;;11.70;6.10;;;19.10;54.80;;;;;;5027995;28;20410;-83
2022/08/04 01:22:32;;;;;;;14.85;6.00;;;19.10;31.00;;;;;;5027748;28;20477;-82
2022/08/04 01:25:28;;;;;;;11.05;5.80;;;19.10;16.20;;;;;;5037381;28;20041;-83
2022/08/04 01:28:05;;;;;;;12.63;5.93;;;19.10;1.00;;;;;;5057585;28;20037;-82
2022/08/04 01:30:32;;;;;;;11.38;6.15;;;19.10;99.90;;;;;;5024774;28;20037;-82
2022/08/04 01:33:03;;;;;;;10.10;5.50;;;19.10;1.00;;;;;;5054780;28;20037;-82
2022/08/04 01:35:54;;;;;;;11.25;6.28;;;19.10;1.00;;;;;;5024201;28;20044;-82
2022/08/04 01:38:35;;;;;;;11.25;5.90;;;19.10;1.00;;;;;;5012146;28;20045;-82
2022/08/04 01:41:07;;;;;;;13.35;6.28;;;19.10;37.30;;;;;;5049957;28;20068;-82
2022/08/04 01:43:34;;;;;;;14.30;6.75;;;19.00;1.00;;;;;;5055206;28;20092;-82
2022/08/04 01:46:04;;;;;;;13.35;6.80;;;19.10;67.70;;;;;;5053006;28;20045;-82
2022/08/04 01:48:30;;;;;;;13.57;6.70;;;19.10;99.90;;;;;;5025739;28;20049;-82
2022/08/04 01:50:58;;;;;;;11.63;6.28;;;19.00;99.90;;;;;;5020246;28;20257;-82
2022/08/04 01:53:33;;;;;;;11.73;6.47;;;19.00;99.90;;;;;;5008214;28;20042;-82
2022/08/04 01:56:01;;;;;;;11.98;5.68;;;19.00;99.90;;;;;;5033935;28;20044;-82
2022/08/04 01:58:29;;;;;;;13.15;5.78;;;18.90;1.00;;;;;;5024509;28;20377;-82
2022/08/04 02:01:02;;;;;;;13.85;6.00;;;18.90;1.00;;;;;;5038258;28;20114;-83
2022/08/04 02:03:28;;;;;;;11.30;6.22;;;18.90;5.20;;;;;;5054226;28;20091;-82
2022/08/04 02:06:09;;;;;;;13.60;6.43;;;18.90;1.00;;;;;;5052718;28;20314;-82
2022/08/04 02:08:48;;;;;;;13.57;6.05;;;18.80;99.90;;;;;;5038537;28;20107;-83
2022/08/04 02:11:23;;;;;;;12.25;5.97;;;18.80;99.90;;;;;;5013163;28;20033;-83
2022/08/04 02:13:53;;;;;;;;;;;18.80;82.20;;;;;;5056469;28;20449;-82
2022/08/04 02:16:37;;;;;;;9.00;5.25;;;18.80;99.90;;;;;;5054352;28;20012;-82
2022/08/04 02:19:31;;;;;;;8.35;5.40;;;18.70;1.00;;;;;;5034338;28;20044;-82
2022/08/04 02:22:08;;;;;;;9.70;5.60;;;18.70;95.20;;;;;;5054674;28;20037;-82
2022/08/04 02:24:48;;;;;;;7.60;4.68;;;18.60;1.60;;;;;;5031502;28;20037;-82
2022/08/04 02:27:15;;;;;;;8.73;6.63;;;18.70;1.00;;;;;;5007580;28;20098;-83
2022/08/04 02:30:10;;;;;;;10.55;5.50;;;18.70;99.90;;;;;;5025560;28;20519;-82
2022/08/04 02:32:40;;;;;;;4.93;3.55;;;18.60;1.00;;;;;;5018492;28;20051;-82
2022/08/04 02:35:07;;;;;;;10.60;5.57;;;18.60;1.00;;;;;;5027644;28;20025;-82
2022/08/04 02:37:36;;;;;;;14.60;8.25;;;18.50;58.60;;;;;;5036404;28;20550;-82
2022/08/04 02:40:05;;;;;;;15.55;8.50;;;18.50;1.00;;;;;;5005951;28;20040;-84
2022/08/04 02:42:32;;;;;;;12.20;7.50;;;18.50;99.90;;;;;;5011290;28;20048;-82
2022/08/04 02:44:59;;;;;;;11.65;6.20;;;18.50;1.00;;;;;;5034000;28;20407;-82
2022/08/04 02:47:27;;;;;;;9.10;5.63;;;18.40;99.90;;;;;;5040142;28;20037;-82
2022/08/04 02:49:55;;;;;;;14.00;7.00;;;18.30;1.00;;;;;;5022443;28;20393;-82
2022/08/04 02:52:23;;;;;;;13.68;8.60;;;18.30;1.00;;;;;;5058203;28;20436;-82
2022/08/04 02:54:54;;;;;;;18.60;8.07;;;18.30;99.90;;;;;;5035635;28;20049;-82
2022/08/04 02:57:24;;;;;;;16.33;8.25;;;18.20;99.90;;;;;;5052807;28;20056;-82
2022/08/04 03:00:09;;;;;;;12.27;8.18;;;18.30;99.90;;;;;;5039527;28;20154;-82
2022/08/04 03:03:06;;;;;;;17.15;8.25;;;18.30;99.90;;;;;;5008540;28;20033;-82
2022/08/04 03:05:40;;;;;;;13.98;7.68;;;18.30;99.90;;;;;;5058391;28;20152;-81
2022/08/04 03:08:28;;;;;;;11.65;7.38;;;18.30;99.90;;;;;;5056059;28;20041;-82
2022/08/04 03:11:08;;;;;;;13.75;7.95;;;18.30;99.90;;;;;;5029371;28;20037;-82
2022/08/04 03:13:47;;;;;;;11.63;7.22;;;18.30;99.90;;;;;;5056451;28;20090;-82
2022/08/04 03:16:44;;;;;;;11.60;7.03;;;18.30;99.90;;;;;;5026969;28;20041;-82
2022/08/04 03:19:15;;;;;;;10.27;7.10;;;18.30;99.90;;;;;;5038039;28;20049;-82
2022/08/04 03:22:14;;;;;;;13.65;7.57;;;18.30;99.90;;;;;;5014274;28;20789;-82
2022/08/04 03:24:52;;;;;;;11.52;7.03;;;18.30;99.90;;;;;;5030256;28;20049;-82
2022/08/04 03:27:48;;;;;;;10.40;6.80;;;18.30;99.90;;;;;;5022403;28;20045;-82
2022/08/04 03:31:02;;;;;;;11.55;6.07;;;18.30;99.90;;;;;;5055017;28;20037;-82
2022/08/04 03:33:38;;;;;;;8.48;5.70;;;18.10;99.90;;;;;;5005343;28;20037;-82
2022/08/04 03:36:04;;;;;;;14.75;7.25;;;18.10;99.90;;;;;;5024752;28;20037;-81
2022/08/04 03:38:39;;;;;;;11.60;7.03;;;18.00;99.90;;;;;;5013700;28;20041;-81
2022/08/04 03:41:19;;;;;;;;;;;18.00;99.90;;;;;;5039929;28;20033;-82
2022/08/04 03:43:50;;;;;;;9.18;5.50;;;17.90;99.90;;;;;;5039226;28;20012;-81
2022/08/04 03:46:54;;;;;;;10.02;6.05;;;17.90;99.90;;;;;;5053425;28;20045;-81
2022/08/04 03:49:25;;;;;;;8.38;6.30;;;17.90;99.90;;;;;;5047245;28;20457;-82
2022/08/04 03:55:21;;;;;;;;;;;18.00;99.90;;;;;;5021710;28;20049;-81
2022/08/04 03:58:00;;;;;;;8.77;5.00;;;18.00;99.90;;;;;;5040490;28;20439;-81
2022/08/04 04:01:07;;;;;;;7.15;5.07;;;18.00;99.90;;;;;;5066975;28;20045;-81
2022/08/04 04:04:06;;;;;;;12.38;6.68;;;18.00;99.90;;;;;;5013826;28;20053;-81
2022/08/04 04:07:06;;;;;;;10.15;6.43;;;18.10;99.90;;;;;;5022960;28;20507;-82
2022/08/04 04:10:03;;;;;;;8.38;6.20;;;18.00;99.90;;;;;;5042766;28;20041;-82
2022/08/04 04:12:50;;;;;;;8.10;6.28;;;18.00;99.90;;;;;;5030192;28;20525;-82
2022/08/04 04:15:30;;;;;;;10.68;7.72;;;18.00;99.90;;;;;;5055067;28;20047;-82
2022/08/04 04:18:31;;;;;;;12.85;7.60;;;17.90;99.90;;;;;;5028542;28;20063;-81
2022/08/04 04:21:19;;;;;;;13.25;7.50;;;18.00;99.90;;;;;;5030648;28;20037;-81
2022/08/04 04:24:14;;;;;;;10.38;6.75;;;18.10;99.90;;;;;;5039916;28;21046;-81
2022/08/04 04:27:05;;;;;;;14.48;8.85;;;18.10;99.90;;;;;;5013736;28;20042;-82
2022/08/04 04:29:59;;;;;;;13.73;8.30;;;18.20;1.00;;;;;;5045857;28;20033;-82
2022/08/04 04:33:15;;;;;;;13.07;8.02;;;18.20;1.00;;;;;;5047345;28;20045;-81
2022/08/04 04:36:01;;;;;;;13.00;6.97;;;18.30;99.90;;;;;;5001189;28;20041;-81
2022/08/04 04:39:09;;;;;;;11.85;7.03;;;18.40;99.90;;;;;;4961435;28;20046;-82
2022/08/04 04:41:58;;;;;;;9.43;7.10;;;18.40;99.90;;;;;;4980707;28;20096;-81
2022/08/04 04:44:40;;;;;;;11.85;7.43;;;18.40;99.90;;;;;;5008840;28;20057;-81
2022/08/04 04:47:10;;;;;;;11.80;6.55;;;18.50;99.90;;;;;;5036525;28;20045;-81
2022/08/04 04:49:48;;;;;;;11.30;7.38;;;18.60;99.90;;;;;;5026556;28;20440;-81
2022/08/04 04:52:20;;;;;;;10.93;6.07;;;18.60;99.90;;;;;;5054118;28;20297;-81
2022/08/04 04:54:54;;;;;;;9.88;5.95;;;18.70;99.90;;;;;;5026845;28;20126;-82
2022/08/04 04:57:22;;;;;;;9.65;6.25;;;18.70;99.90;;;;;;5041956;28;20064;-82
2022/08/04 05:00:05;;;;;;;13.90;6.78;;;18.80;99.90;;;;;;5034856;28;20186;-81
2022/08/04 05:02:55;;;;;;;8.52;6.32;;;18.90;99.90;;;;;;5026857;28;20347;-81
2022/08/04 05:05:36;;;;;;;8.80;6.30;;;19.00;99.90;;;;;;5035070;28;20375;-81
2022/08/04 05:08:20;;;;;;;9.98;6.85;;;19.00;99.90;;;;;;5029683;28;20067;-82
2022/08/04 05:10:49;;;;;;;8.83;6.90;;;19.20;99.90;;;;;;5035715;28;20045;-81
2022/08/04 05:13:44;;;;;;;10.40;6.57;;;19.30;99.90;;;;;;5059237;28;20635;-81
2022/08/04 05:16:31;;;;;;;9.93;6.82;;;19.30;99.90;;;;;;5048873;28;20103;-82
2022/08/04 05:19:02;;;;;;;8.40;6.25;;;19.60;99.90;;;;;;5004199;28;20038;-81
2022/08/04 05:21:31;;;;;;;10.98;7.50;;;19.70;99.90;;;;;;5038589;28;20045;-81
2022/08/04 05:24:01;;;;;;;9.27;6.43;;;19.80;99.90;;;;;;5004315;28;20395;-82
2022/08/04 05:26:34;;;;;;;15.48;6.97;;;20.00;99.90;;;;;;5039279;28;20029;-82
2022/08/04 05:29:06;;;;;;;17.27;8.38;;;20.10;92.60;;;;;;5038277;28;20190;-82
2022/08/04 05:31:41;;;;;;;10.98;6.95;;;20.20;18.10;;;;;;5054938;28;20114;-81
2022/08/04 05:34:27;;;;;;;10.65;7.57;;;20.40;63.60;;;;;;5045900;28;20092;-82
2022/08/04 05:37:06;;;;;;;15.35;8.20;;;20.50;6.70;;;;;;5024756;28;20030;-82
2022/08/04 05:39:44;;;;;;;13.73;9.15;;;20.70;1.00;;;;;;5027241;28;20037;-82
2022/08/04 05:42:11;;;;;;;13.55;8.63;;;20.90;99.90;;;;;;5060273;28;20585;-82
2022/08/04 05:44:38;;;;;;;11.32;8.35;;;20.80;99.90;;;;;;5039688;28;20037;-82
2022/08/04 05:47:05;;;;;;;12.30;8.35;;;20.90;93.70;;;;;;5040294;28;20052;-81
2022/08/04 05:49:33;;;;;;;15.38;8.73;;;21.00;31.30;;;;;;5019335;28;20286;-82
2022/08/04 05:52:01;;;;;;;12.95;8.10;;;21.10;1.00;;;;;;5028995;28;20057;-82
2022/08/04 05:54:32;;;;;;;19.38;8.63;;;21.30;1.00;;;;;;5041759;28;20480;-81
2022/08/04 05:56:58;;;;;;;15.48;8.20;;;21.40;99.90;;;;;;5003872;28;20120;-82
2022/08/04 05:59:26;;;;;;;14.63;7.60;;;21.50;99.90;;;;;;5069665;28;20037;-82
2022/08/04 06:01:57;;;;;;;15.20;8.02;;;21.60;99.90;;;;;;5056358;28;20075;-82
2022/08/04 06:04:40;;;;;;;13.70;7.35;;;21.70;1.00;;;;;;5025595;28;20047;-82
2022/08/04 06:07:08;;;;;;;14.30;7.82;;;21.70;99.90;;;;;;5024262;28;20112;-82
2022/08/04 06:09:34;;;;;;;11.13;7.07;;;21.80;99.90;;;;;;5005849;28;20042;-82
2022/08/04 06:12:05;;;;;;;11.25;7.28;;;22.00;99.90;;;;;;5009643;28;20049;-82
2022/08/04 06:14:40;;;;;;;9.90;6.72;;;22.10;99.90;;;;;;5009572;28;20045;-82
2022/08/04 06:17:08;;;;;;;12.80;7.15;;;22.20;99.90;;;;;;5012559;28;20040;-82
2022/08/04 06:19:35;;;;;;;13.43;7.30;;;22.40;99.90;;;;;;5029895;28;20186;-82
2022/08/04 06:22:03;;;;;;;8.70;6.78;;;22.50;68.50;;;;;;5037958;28;20045;-82
2022/08/04 06:24:31;;;;;;;13.15;6.78;;;22.80;1.00;;;;;;5037906;28;20056;-83
2022/08/04 06:26:57;;;;;;;10.65;6.78;;;23.00;1.00;;;;;;5032001;28;20509;-82
2022/08/04 06:29:32;;;;;;;13.60;6.20;;;23.30;99.90;;;;;;5052126;28;20033;-82
2022/08/04 06:35:00;;;;;;;11.85;6.80;;;23.40;99.90;;;;;;5055533;28;20037;-82
2022/08/04 06:37:27;;;;;;;10.60;6.22;;;23.70;99.90;;;;;;5028057;28;20052;-82
2022/08/04 06:39:54;;;;;;;12.15;6.03;;;23.90;99.90;;;;;;5044173;28;20591;-83
2022/08/04 06:42:23;;;;;;;13.27;6.47;;;24.10;99.90;;;;;;5053535;28;20033;-82
2022/08/04 06:44:53;;;;;;;8.93;5.90;;;24.10;99.90;;;;;;5038044;28;20080;-83
2022/08/04 06:47:20;;;;;;;11.82;5.63;;;24.20;99.90;;;;;;5044344;28;20140;-82
2022/08/04 06:49:49;;;;;;;9.85;5.25;;;24.40;35.50;;;;;;5053906;28;20049;-83
2022/08/04 06:52:18;;;;;;;11.60;5.95;;;24.40;90.30;;;;;;5004779;28;20085;-83
2022/08/04 06:54:49;;;;;;;10.07;5.22;;;24.40;1.00;;;;;;5036287;28;20599;-83
2022/08/04 06:57:19;;;;;;;8.98;5.88;;;24.70;99.90;;;;;;5043664;28;20068;-83
2022/08/04 06:59:49;;;;;;;11.23;5.40;;;24.70;1.00;;;;;;5057289;28;20071;-82
2022/08/04 07:02:19;;;;;;;11.32;5.05;;;24.80;1.00;;;;;;5032045;28;20040;-83
2022/08/04 07:04:47;;;;;;;9.40;4.75;;;25.10;99.90;;;;;;5025850;28;20654;-83
2022/08/04 07:07:14;;;;;;;11.70;5.15;;;25.30;55.60;;;;;;5062065;28;20801;-83
2022/08/04 07:09:40;;;;;;;11.68;4.65;;;25.50;99.90;;;;;;5061681;28;20521;-83
2022/08/04 07:12:07;;;;;;;16.80;4.82;;;25.50;1.00;;;;;;5046787;28;20306;-82
2022/08/04 07:14:36;;;;;;;9.98;5.03;;;25.70;1.00;;;;;;5041743;28;20036;-83
2022/08/04 07:17:04;;;;;;;10.43;4.63;;;25.60;94.60;;;;;;5033600;28;20044;-83
2022/08/04 07:19:31;;;;;;;10.73;4.63;;;25.60;12.90;;;;;;5054488;28;20052;-83
2022/08/04 07:21:59;;;;;;;10.10;4.30;;;25.70;1.00;;;;;;5028494;28;20172;-83
2022/08/04 07:24:33;;;;;;;7.68;4.20;;;25.90;1.00;;;;;;5027912;28;20048;-83
2022/08/04 07:26:59;;;;;;;7.38;3.92;;;26.00;1.00;;;;;;5009366;28;20084;-83
2022/08/04 07:29:26;;;;;;;9.45;4.22;;;26.20;1.00;;;;;;5016681;28;20028;-83
2022/08/04 07:31:53;;;;;;;8.98;3.90;;;26.20;1.00;;;;;;5001368;28;20053;-83
2022/08/04 07:34:20;;;;;;;9.27;3.60;;;26.20;99.90;;;;;;5050627;28;20694;-84
2022/08/04 07:36:51;;;;;;;13.05;4.15;;;26.20;99.90;;;;;;5058960;28;20045;-83
2022/08/04 07:39:17;;;;;;;7.03;3.63;;;26.40;99.90;;;;;;5061002;28;20467;-83
2022/08/04 07:41:43;;;;;;;7.55;3.45;;;26.60;99.90;;;;;;5012221;28;20095;-83
2022/08/04 07:44:09;;;;;;;11.88;3.30;;;26.80;99.90;;;;;;5044183;28;20045;-83
2022/08/04 07:46:36;;;;;;;6.97;3.20;;;26.70;99.90;;;;;;5013651;28;20037;-83
2022/08/04 07:49:04;;;;;;;12.00;3.45;;;26.80;99.90;;;;;;5040438;28;20083;-83
2022/08/04 07:51:32;;;;;;;10.02;3.40;;;26.80;99.90;;;;;;5048072;28;20497;-83
2022/08/04 07:53:59;;;;;;;9.15;2.90;;;27.10;99.90;;;;;;5042567;28;20405;-83
2022/08/04 07:56:26;;;;;;;10.70;3.05;;;27.30;99.90;;;;;;5041567;28;20107;-83
2022/08/04 07:58:52;;;;;;;6.53;3.22;;;27.50;99.90;;;;;;5058882;28;20052;-83
2022/08/04 08:01:24;;;;;;;13.68;3.30;;;27.30;99.90;;;;;;5047536;28;20041;-83
2022/08/04 08:03:53;;;;;;;6.43;2.78;;;27.30;99.90;;;;;;5046080;28;20037;-84
2022/08/04 08:06:19;;;;;;;8.43;3.20;;;27.30;99.90;;;;;;5036162;28;20083;-84
2022/08/04 08:08:48;;;;;;;9.73;3.25;;;27.60;99.90;;;;;;5041711;28;20084;-83
2022/08/04 08:11:16;;;;;;;7.15;2.75;;;27.50;99.90;;;;;;5037949;28;20041;-84
2022/08/04 08:13:45;;;;;;;5.00;2.67;;;27.60;99.90;;;;;;5058421;28;20559;-84
2022/08/04 08:16:11;;;;;;;8.05;3.05;;;27.50;99.90;;;;;;5043439;28;20070;-84
2022/08/04 08:18:37;;;;;;;8.30;3.03;;;27.50;99.90;;;;;;5055320;28;20041;-84
2022/08/04 08:21:04;;;;;;;9.52;3.47;;;27.50;99.90;;;;;;5055458;28;20030;-83
2022/08/04 08:23:33;;;;;;;8.13;3.25;;;27.40;99.90;;;;;;5059168;28;20049;-84
2022/08/04 08:25:58;;;;;;;7.82;3.10;;;27.50;99.90;;;;;;5041278;28;20048;-83
2022/08/04 08:28:25;;;;;;;8.23;3.20;;;27.50;99.90;;;;;;5030344;28;20037;-84
2022/08/04 08:30:50;;;;;;;7.82;3.38;;;27.60;99.90;;;;;;5038857;28;20048;-83
2022/08/04 08:33:17;;;;;;;7.97;3.03;;;27.70;99.90;;;;;;5060955;28;20041;-84
2022/08/04 08:36:27;;;;;;;9.73;3.05;;;27.60;99.90;;;;;;5060872;28;20033;-83
2022/08/04 08:39:20;;;;;;;9.82;2.85;;;27.60;99.90;;;;;;4968229;28;20042;-84
2022/08/04 08:41:54;;;;;;;7.82;3.17;;;27.60;99.90;;;;;;4956959;28;20034;-85
2022/08/04 08:44:38;;;;;;;9.73;3.55;;;27.70;99.90;;;;;;5009489;28;20041;-84
2022/08/04 08:47:23;;;;;;;10.18;3.47;;;27.70;99.90;;;;;;5061367;28;20071;-84
2022/08/04 08:50:07;;;;;;;8.43;3.65;;;27.50;99.90;;;;;;5039402;28;20033;-83
2022/08/04 08:52:55;;;;;;;7.72;3.80;;;27.20;1.00;;;;;;5057001;28;20045;-84
2022/08/04 08:55:46;;;;;;;12.73;4.38;;;27.60;99.90;;;;;;5028767;28;20055;-84
2022/08/04 08:58:15;;;;;;;13.45;4.25;;;27.40;1.00;;;;;;5030083;28;20041;-84
2022/08/04 09:00:59;;;;;;;7.78;4.30;;;27.60;1.00;;;;;;5058489;28;20147;-83
2022/08/04 09:04:02;;;;;;;11.60;4.55;;;27.40;99.90;;;;;;5060801;28;20100;-84
2022/08/04 09:06:33;;;;;;;9.32;4.65;;;27.60;99.90;;;;;;5039500;28;20041;-83
2022/08/04 09:09:23;;;;;;;9.20;4.63;;;27.50;99.90;;;;;;5046661;28;20048;-84
2022/08/04 09:11:53;;;;;;;7.45;4.45;;;27.20;1.00;;;;;;5051560;28;20041;-84
2022/08/04 09:14:25;;;;;;;12.13;4.53;;;26.70;99.90;;;;;;5062433;28;20518;-84
2022/08/04 09:16:59;;;;;;;8.68;4.28;;;27.00;99.90;;;;;;5031291;28;20037;-83
2022/08/04 09:20:06;;;;;;;7.05;3.92;;;27.20;99.90;;;;;;5057151;28;20049;-84
2022/08/04 09:22:49;;;;;;;8.23;3.90;;;27.40;99.90;;;;;;4964644;28;20069;-84
2022/08/04 09:25:30;;;;;;;7.18;3.97;;;27.20;99.90;;;;;;5028445;28;20037;-84
2022/08/04 09:28:05;;;;;;;11.48;4.18;;;26.90;99.90;;;;;;5054618;28;20041;-84
2022/08/04 09:30:44;;;;;;;10.05;3.72;;;26.90;99.90;;;;;;5041827;28;20487;-83
2022/08/04 09:33:42;;;;;;;8.68;3.92;;;26.90;99.90;;;;;;5044092;28;20040;-84
2022/08/04 09:36:17;;;;;;;6.68;4.47;;;27.00;99.90;;;;;;5000509;28;20393;-83
2022/08/04 09:39:02;;;;;;;11.27;4.60;;;27.20;99.90;;;;;;5027763;28;20432;-84
2022/08/04 09:41:31;;;;;;;;;;;27.30;99.90;;;;;;5021337;28;20178;-84
2022/08/04 09:44:16;;;;;;;9.80;5.40;;;27.30;99.90;;;;;;5039366;28;20012;-83
2022/08/04 09:46:52;;;;;;;8.20;5.20;;;27.30;99.90;;;;;;5024849;28;20616;-83
2022/08/04 09:49:30;;;;;;;11.15;6.03;;;27.30;99.90;;;;;;5010465;28;20033;-84
2022/08/04 09:52:15;;;;;;;11.13;6.07;;;27.30;99.90;;;;;;5040248;28;20140;-83
2022/08/04 09:55:32;;;;;;;10.63;5.18;;;27.20;99.90;;;;;;5009124;28;20045;-83
2022/08/04 09:58:36;;;;;;;9.98;4.43;;;27.20;99.90;;;;;;5009831;28;20080;-84
2022/08/04 10:01:12;;;;;;;6.70;3.45;;;27.40;99.90;;;;;;5021674;28;20033;-85
2022/08/04 10:03:42;;;;;;;8.60;3.65;;;27.70;99.90;;;;;;5046175;28;20245;-84
2022/08/04 10:06:15;;;;;;;9.05;3.80;;;28.00;99.90;;;;;;5022002;28;20038;-84
2022/08/04 10:09:11;;;;;;;9.43;4.00;;;28.10;99.90;;;;;;5042982;28;20056;-84
2022/08/04 10:11:53;;;;;;;9.27;3.60;;;28.10;99.90;;;;;;5056709;28;20559;-85
2022/08/04 10:14:38;;;;;;;8.18;3.67;;;27.70;99.90;;;;;;5008255;28;20041;-84
2022/08/04 10:17:23;;;;;;;;;;;27.90;99.90;;;;;;5036637;28;20064;-84
2022/08/04 10:20:07;;;;;;;9.35;3.60;;;27.90;99.90;;;;;;5039752;28;20380;-84
2022/08/04 10:22:40;;;;;;;8.23;4.15;;;28.20;85.80;;;;;;5040798;28;20106;-84
2022/08/04 10:25:18;;;;;;;7.28;3.22;;;27.80;61.00;;;;;;5003070;28;20069;-85
2022/08/04 10:28:01;;;;;;;6.28;3.50;;;27.70;99.90;;;;;;5038735;28;20131;-84
2022/08/04 10:30:30;;;;;;;7.88;3.67;;;27.50;99.90;;;;;;5039601;28;20481;-84
2022/08/04 10:33:29;;;;;;;9.77;3.58;;;27.40;82.80;;;;;;5026024;28;20045;-83
2022/08/04 10:36:09;;;;;;;19.02;3.53;;;27.50;63.40;;;;;;5009603;28;20410;-84
2022/08/04 10:39:16;;;;;;;7.25;3.13;;;27.50;95.10;;;;;;5052315;28;20098;-84
2022/08/04 10:41:52;;;;;;;8.85;2.47;;;27.80;48.70;;;;;;5036289;28;20073;-84
2022/08/04 10:45:03;;;;;;;6.25;1.98;;;27.70;23.10;;;;;;5031469;28;20051;-84
2022/08/04 10:47:36;;;;;;;6.65;2.25;;;27.70;1.00;;;;;;5034956;28;20049;-84
2022/08/04 10:50:02;;;;;;;6.75;2.25;;;27.50;1.00;;;;;;5030145;28;20216;-84
2022/08/04 10:52:43;;;;;;;5.22;2.00;;;27.40;1.00;;;;;;5036502;28;20038;-84
2022/08/04 10:55:18;;;;;;;4.55;1.80;;;27.80;1.00;;;;;;5003302;28;20135;-84
2022/08/04 10:57:46;;;;;;;7.60;2.38;;;27.90;1.00;;;;;;5023606;28;20091;-83
2022/08/04 11:00:24;;;;;;;7.82;1.90;;;28.00;1.00;;;;;;5025317;28;20046;-84
2022/08/04 11:02:53;;;;;;;5.57;1.85;;;28.30;1.00;;;;;;5009921;28;20080;-84
2022/08/04 11:05:48;;;;;;;14.93;2.30;;;28.00;1.00;;;;;;4992990;28;20116;-84
2022/08/04 11:08:24;;;;;;;8.88;2.40;;;28.20;1.00;;;;;;5029611;28;20052;-84
2022/08/04 11:11:07;;;;;;;7.50;2.05;;;28.20;1.00;;;;;;5032329;28;20037;-84
2022/08/04 11:13:41;;;;;;;8.32;2.10;;;28.10;1.00;;;;;;5009596;28;20171;-84
2022/08/04 11:16:15;;;;;;;9.38;2.10;;;28.30;1.00;;;;;;5011126;28;20523;-84
2022/08/04 11:19:06;;;;;;;5.13;2.47;;;28.30;1.00;;;;;;5021435;28;20103;-84
2022/08/04 11:21:41;;;;;;;6.65;2.20;;;28.30;1.00;;;;;;5021322;28;20497;-84
2022/08/04 11:24:19;;;;;;;7.38;2.85;;;28.30;30.60;;;;;;5038943;28;20497;-83
2022/08/04 11:26:52;;;;;;;10.52;2.90;;;27.70;46.50;;;;;;5015735;28;20133;-83
2022/08/04 11:29:26;;;;;;;6.80;2.83;;;27.50;99.90;;;;;;5015722;28;20532;-85
2022/08/04 11:31:56;;;;;;;7.28;2.50;;;27.80;99.90;;;;;;5034899;28;20407;-84
2022/08/04 11:34:24;;;;;;;9.13;3.03;;;28.10;99.90;;;;;;5028851;28;20041;-85
2022/08/04 11:36:56;;;;;;;7.88;2.30;;;28.00;91.00;;;;;;4994296;28;20473;-84
2022/08/04 11:39:31;;;;;;;7.70;2.42;;;27.90;99.90;;;;;;5037252;28;20272;-84
2022/08/04 11:42:00;;;;;;;6.55;2.20;;;27.70;99.90;;;;;;5023584;28;20034;-84
2022/08/04 11:44:35;;;;;;;4.35;1.92;;;28.00;92.10;;;;;;5017949;28;20394;-84
2022/08/04 11:47:18;;;;;;;6.28;1.92;;;27.90;99.90;;;;;;5037639;28;20042;-85
2022/08/04 11:49:48;;;;;;;6.90;2.13;;;27.70;39.60;;;;;;5041140;28;20044;-84
2022/08/04 11:52:20;;;;;;;3.90;1.80;;;27.60;1.00;;;;;;5037363;28;20057;-84
2022/08/04 11:54:48;;;;;;;6.13;1.65;;;27.50;76.70;;;;;;5058710;28;20116;-84
2022/08/04 11:57:14;;;;;;;2.55;1.45;;;27.60;99.90;;;;;;5051314;28;20054;-84
2022/08/04 11:59:42;;;;;;;4.00;2.15;;;27.70;99.90;;;;;;5060119;28;20124;-84
2022/08/04 12:02:49;;;;;;;3.10;2.03;;;27.50;99.90;;;;;;5029884;28;20073;-84
2022/08/04 12:05:23;;;;;;;5.57;1.77;;;27.60;74.60;;;;;;5027941;28;20061;-85
2022/08/04 12:08:14;;;;;;;3.47;1.95;;;27.80;99.90;;;;;;5025332;28;20049;-84
2022/08/04 12:10:50;;;;;;;6.22;1.90;;;27.40;1.00;;;;;;5042530;28;20167;-84
2022/08/04 12:13:39;;;;;;;4.93;1.83;;;27.40;93.00;;;;;;5054041;28;20101;-83
2022/08/04 12:16:16;;;;;;;4.60;1.60;;;27.10;3.20;;;;;;5035171;28;20041;-84
2022/08/04 12:18:56;;;;;;;3.97;2.10;;;26.70;1.00;;;;;;5055748;28;20143;-83
2022/08/04 12:21:41;;;;;;;3.35;1.80;;;26.70;1.00;;;;;;5060519;28;20052;-83
2022/08/04 12:24:20;;;;;;;3.10;1.70;;;26.30;1.00;;;;;;5055082;28;20402;-83
2022/08/04 12:26:57;;;;;;;5.65;1.90;;;26.50;1.00;;;;;;5024966;28;20226;-84
2022/08/04 12:29:27;;;;;;;4.55;1.88;;;26.20;1.00;;;;;;5026642;28;20092;-84
2022/08/04 12:31:55;;;;;;;3.65;1.85;;;26.30;1.00;;;;;;5059575;28;20124;-84
2022/08/04 12:34:44;;;;;;;3.72;1.80;;;26.20;1.00;;;;;;5043358;28;20453;-83
2022/08/04 12:37:28;;;;;;;3.28;1.73;;;26.10;5.10;;;;;;5038049;28;20068;-84
2022/08/04 12:39:59;;;;;;;3.35;1.73;;;26.10;1.00;;;;;;5021603;28;20047;-84
2022/08/04 12:42:42;;;;;;;2.95;1.80;;;26.10;51.70;;;;;;5045346;28;20408;-84
2022/08/04 12:45:09;;;;;;;3.88;1.75;;;26.20;99.90;;;;;;5058396;28;20089;-84
2022/08/04 12:47:36;;;;;;;3.88;1.88;;;26.40;88.80;;;;;;5053296;28;20506;-84
2022/08/04 12:50:04;;;;;;;3.17;1.63;;;26.40;67.70;;;;;;5014078;28;20064;-85
2022/08/04 12:52:41;;;;;;;2.42;1.60;;;26.70;90.30;;;;;;5062259;28;20431;-85
2022/08/04 12:55:08;;;;;;;2.30;1.40;;;26.90;1.00;;;;;;5030883;28;20044;-84
2022/08/04 12:57:34;;;;;;;3.83;1.40;;;27.00;1.00;;;;;;5013366;28;20123;-83
2022/08/04 13:00:00;;;;;;;2.63;1.50;;;27.10;1.00;;;;;;5017391;28;20037;-84
2022/08/04 13:02:30;;;;;;;3.70;1.45;;;27.30;1.00;;;;;;5017492;28;20460;-83
2022/08/04 13:05:01;;;;;;;4.13;1.52;;;27.20;1.00;;;;;;5012163;28;20033;-84
2022/08/04 13:07:34;;;;;;;3.03;1.70;;;27.10;1.00;;;;;;5017991;28;20059;-84
2022/08/04 13:10:12;;;;;;;4.57;1.73;;;27.10;1.00;;;;;;5056803;28;20457;-85
2022/08/04 13:12:40;;;;;;;3.30;1.38;;;27.20;1.00;;;;;;5031303;28;20064;-84
2022/08/04 13:15:19;;;;;;;2.90;1.40;;;27.00;1.00;;;;;;5031015;28;20048;-84
2022/08/04 13:18:09;;;;;;;3.92;1.30;;;27.20;1.00;;;;;;5015853;28;20048;-84
2022/08/04 13:20:36;;;;;;;2.60;1.50;;;27.30;1.00;;;;;;5024517;28;20393;-85
2022/08/04 13:23:14;;;;;;;3.22;1.27;;;27.20;99.90;;;;;;5037507;28;20033;-83
2022/08/04 13:25:49;;;;;;;2.90;1.65;;;27.10;1.00;;;;;;5054024;28;20039;-84
2022/08/04 13:28:25;;;;;;;4.10;1.33;;;27.10;1.00;;;;;;5046801;28;20045;-84
2022/08/04 13:30:57;;;;;;;2.50;1.10;;;27.40;1.00;;;;;;5034624;28;20225;-85
2022/08/04 13:33:40;;;;;;;3.95;1.55;;;28.10;99.90;;;;;;5054835;28;20048;-84
2022/08/04 13:36:08;;;;;;;1.65;1.10;;;28.40;99.90;;;;;;5041965;28;20457;-85
2022/08/04 13:38:38;;;;;;;2.97;1.20;;;28.70;99.90;;;;;;5041700;28;20037;-84
2022/08/04 13:41:06;;;;;;;2.35;1.23;;;29.10;99.90;;;;;;5044828;28;20063;-84